Atwood, Indiana
Current Conditions -  °F | °C
As of 10:35 PM on Sunday 23 Nov 2014 (Local Time) from KASW Reporting Station
Moderate Rain Moderate Rain  
Wind Chill: 50°   Ceiling: 500
Heat Index: 50°   Visibility: 5mi
Dew Point: 50°   Wind: 3mph
Humidity: 100%   Direction: 130°SE
Pressure: 29.19"   Gusts: NA
Location:  41.26°N, 85.98°W
Report Text: KASW 240335Z AUTO 13003KT 5SM RA OVC005 10/10 A2919 RMK AO2 P0005
Loading
Personal Weather Stations






























Interactive Weather Map New forecast layout! Learn more

10-Day Weather Forecast

Advertisements
Track Severe Weather on mobile